createdAt,value
2023-04-16T00:00:04.823Z,100078.91
2023-04-16T00:05:14.765Z,100080.75
2023-04-16T00:10:16.451Z,100084.72
2023-04-16T00:15:18.083Z,100085.69
2023-04-16T00:20:20.490Z,100088.78
2023-04-16T00:25:22.173Z,100092.47
2023-04-16T00:30:23.803Z,100097.25
2023-04-16T00:35:25.728Z,100099.50
2023-04-16T00:40:29.032Z,100102.59
2023-04-16T00:45:30.863Z,100103.44
2023-04-16T00:50:33.389Z,100103.84
2023-04-16T00:55:35.295Z,100107.78
2023-04-16T01:00:37.313Z,100108.78
2023-04-16T01:05:38.998Z,100103.53
2023-04-16T01:10:40.829Z,100107.47
2023-04-16T01:15:42.486Z,100109.31
2023-04-16T01:20:44.560Z,100109.69
2023-04-16T01:25:47.047Z,100111.94
2023-04-16T01:30:48.774Z,100114.75
2023-04-16T01:36:22.395Z,100116.00
2023-04-16T01:41:24.741Z,100123.31
2023-04-16T01:46:31.743Z,100113.72
2023-04-16T01:51:33.625Z,100116.78
2023-04-16T01:56:35.330Z,100122.25
2023-04-16T02:01:37.486Z,100126.84
2023-04-16T02:06:39.428Z,100126.63
2023-04-16T02:11:41.198Z,100124.38
2023-04-16T02:16:42.918Z,100127.97
2023-04-16T02:21:56.257Z,100127.50
2023-04-16T02:26:58.262Z,100135.56
2023-04-16T02:32:00.263Z,100140.34
2023-04-16T02:37:03.631Z,100140.19
2023-04-16T02:42:05.276Z,100143.84
2023-04-16T02:47:06.994Z,100148.88
2023-04-16T02:52:08.664Z,100157.13
2023-04-16T02:57:10.498Z,100157.13
2023-04-16T03:02:12.217Z,100157.50
2023-04-16T03:07:13.999Z,100158.38
2023-04-16T03:12:15.626Z,100166.06
2023-04-16T03:17:17.251Z,100170.34
2023-04-16T03:22:18.891Z,100174.50
2023-04-16T03:27:21.264Z,100192.03
2023-04-16T03:32:23.674Z,100195.69
2023-04-16T03:37:25.503Z,100195.19
2023-04-16T03:42:27.495Z,100201.03
2023-04-16T03:47:29.201Z,100201.25
2023-04-16T03:52:36.199Z,100200.28
2023-04-16T03:57:38.014Z,100210.59
2023-04-16T04:02:45.023Z,100218.09
2023-04-16T04:07:53.071Z,100224.53
2023-04-16T04:12:54.833Z,100234.25
2023-04-16T04:17:57.886Z,100232.44
2023-04-16T04:22:59.667Z,100238.50
2023-04-16T04:28:02.067Z,100239.91
2023-04-16T04:33:04.207Z,100236.97
2023-04-16T04:38:06.515Z,100242.22
2023-04-16T04:43:08.773Z,100245.63
2023-04-16T04:48:10.566Z,100243.69
2023-04-16T04:53:14.675Z,100249.84
2023-04-16T04:58:16.451Z,100247.78
2023-04-16T05:03:22.000Z,100253.38
2023-04-16T05:08:23.779Z,100259.00
2023-04-16T05:13:25.463Z,100262.66
2023-04-16T05:18:27.086Z,100271.06
2023-04-16T05:23:28.703Z,100270.34
2023-04-16T05:28:30.994Z,100281.16
2023-04-16T05:33:32.650Z,100289.91
2023-04-16T05:38:34.267Z,100292.72
2023-04-16T05:43:35.924Z,100298.97
2023-04-16T05:48:37.621Z,100304.69
2023-04-16T05:53:39.299Z,100314.91
2023-04-16T05:58:40.922Z,100317.97
2023-04-16T06:03:42.701Z,100317.72
2023-04-16T06:08:44.415Z,100330.03
2023-04-16T06:13:46.337Z,100331.50
2023-04-16T06:18:47.991Z,100330.50
2023-04-16T06:23:49.846Z,100335.34
2023-04-16T06:28:51.504Z,100334.47
2023-04-16T06:33:53.173Z,100343.53
2023-04-16T06:38:54.898Z,100350.34
2023-04-16T06:43:56.524Z,100344.78
2023-04-16T06:48:58.146Z,100342.91
2023-04-16T06:53:59.806Z,100344.31
2023-04-16T06:59:01.406Z,100338.25
2023-04-16T07:04:03.726Z,100340.19
2023-04-16T07:09:05.681Z,100349.16
2023-04-16T07:14:07.378Z,100353.78
2023-04-16T07:19:09.184Z,100350.25
2023-04-16T07:24:11.813Z,100355.81
2023-04-16T07:29:13.552Z,100351.72
2023-04-16T07:34:18.132Z,100349.56
2023-04-16T07:39:19.802Z,100358.06
2023-04-16T07:44:21.575Z,100370.22
2023-04-16T07:49:23.298Z,100372.63
2023-04-16T07:54:25.127Z,100371.59
2023-04-16T07:59:27.516Z,100375.63
2023-04-16T08:04:29.623Z,100377.59
2023-04-16T08:09:31.352Z,100374.47
2023-04-16T08:14:33.129Z,100374.25
2023-04-16T08:19:34.739Z,100382.22
2023-04-16T08:24:36.357Z,100383.44
2023-04-16T08:29:38.277Z,100391.63
2023-04-16T08:34:39.994Z,100401.28
2023-04-16T08:39:41.811Z,100402.69
2023-04-16T08:44:48.893Z,100412.53
2023-04-16T08:49:58.393Z,100403.25
2023-04-16T08:55:25.007Z,100410.22
2023-04-16T09:00:26.798Z,100417.28
2023-04-16T09:05:29.536Z,100411.06
2023-04-16T09:10:31.423Z,100420.38
2023-04-16T09:15:35.197Z,100418.16
2023-04-16T09:20:36.900Z,100417.34
2023-04-16T09:25:38.786Z,100426.81
2023-04-16T09:30:43.182Z,100429.50
2023-04-16T09:35:49.842Z,100428.69
2023-04-16T09:41:07.239Z,100431.88
2023-04-16T09:46:11.700Z,100439.69
2023-04-16T09:51:13.422Z,100440.13
2023-04-16T09:56:15.116Z,100443.69
2023-04-16T10:01:18.309Z,100449.66
2023-04-16T10:06:22.247Z,100447.31
2023-04-16T10:11:25.707Z,100445.66
2023-04-16T10:16:36.760Z,100445.06
2023-04-16T10:21:38.432Z,100444.91
2023-04-16T10:26:41.323Z,100446.41
2023-04-16T10:31:43.204Z,100445.75
2023-04-16T10:36:48.817Z,100446.06
2023-04-16T10:41:51.367Z,100443.56
2023-04-16T10:46:54.824Z,100448.16
2023-04-16T10:52:00.279Z,100452.31
2023-04-16T10:57:20.571Z,100459.09
2023-04-16T11:02:28.990Z,100463.41
2023-04-16T11:07:34.920Z,100451.34
2023-04-16T11:12:40.537Z,100458.66
2023-04-16T11:17:47.505Z,100456.75
2023-04-16T11:22:50.266Z,100451.00
2023-04-16T11:27:53.887Z,100459.63
2023-04-16T11:32:55.770Z,100458.94
2023-04-16T11:37:57.759Z,100448.19
2023-04-16T11:43:04.075Z,100456.22
2023-04-16T11:48:06.033Z,100454.16
2023-04-16T11:53:07.783Z,100457.03
2023-04-16T11:58:19.185Z,100454.53
2023-04-16T12:03:38.819Z,100443.84
2023-04-16T12:08:40.626Z,100440.78
2023-04-16T12:13:42.314Z,100444.69
2023-04-16T12:19:03.056Z,100444.19
2023-04-16T12:24:05.967Z,100445.00
2023-04-16T12:29:25.011Z,100439.84
2023-04-16T12:34:36.509Z,100450.97
2023-04-16T12:39:48.339Z,100446.53
2023-04-16T12:44:50.028Z,100440.03
2023-04-16T12:49:51.650Z,100442.53
2023-04-16T12:54:53.484Z,100430.97
2023-04-16T12:59:56.891Z,100448.44
2023-04-16T13:04:58.557Z,100439.66
2023-04-16T13:10:00.974Z,100436.75
2023-04-16T13:15:02.700Z,100439.50
2023-04-16T13:20:04.709Z,100441.19
2023-04-16T13:25:07.073Z,100440.53
2023-04-16T13:30:25.368Z,100447.03
2023-04-16T13:35:27.369Z,100448.88
2023-04-16T13:40:29.047Z,100453.69
2023-04-16T13:45:30.868Z,100446.50
2023-04-16T13:50:32.546Z,100451.47
2023-04-16T13:55:34.313Z,100455.31
2023-04-16T14:00:36.035Z,100465.34
2023-04-16T14:05:37.701Z,100454.28
2023-04-16T14:10:39.398Z,100464.38
2023-04-16T14:15:41.113Z,100469.66
2023-04-16T14:20:43.838Z,100464.88
2023-04-16T14:25:45.601Z,100457.34
2023-04-16T14:30:47.193Z,100469.69
2023-04-16T14:35:50.385Z,100468.28
2023-04-16T14:40:52.099Z,100472.09
2023-04-16T14:45:53.834Z,100477.53
2023-04-16T14:50:55.676Z,100471.75
2023-04-16T14:56:00.643Z,100480.81
2023-04-16T15:01:03.195Z,100482.88
2023-04-16T15:06:05.862Z,100493.19
2023-04-16T15:11:07.677Z,100489.97
2023-04-16T15:16:09.335Z,100486.94
2023-04-16T15:21:12.593Z,100486.44
2023-04-16T15:26:14.565Z,100492.75
2023-04-16T15:31:16.259Z,100500.28
2023-04-16T15:36:17.977Z,100498.09
2023-04-16T15:41:19.712Z,100497.47
2023-04-16T15:46:21.421Z,100512.69
2023-04-16T15:51:23.122Z,100519.56
2023-04-16T15:56:25.386Z,100515.97
2023-04-16T16:01:28.535Z,100529.03
2023-04-16T16:06:30.176Z,100530.72
2023-04-16T16:11:34.647Z,100540.34
2023-04-16T16:16:40.247Z,100542.13
2023-04-16T16:21:42.089Z,100553.63
2023-04-16T16:26:44.054Z,100558.06
2023-04-16T16:31:45.949Z,100557.69
2023-04-16T16:36:47.753Z,100564.75
2023-04-16T16:41:52.219Z,100571.38
2023-04-16T16:46:54.268Z,100572.69
2023-04-16T16:51:56.036Z,100581.69
2023-04-16T16:56:58.683Z,100580.94
2023-04-16T17:02:00.426Z,100596.06
2023-04-16T17:07:02.601Z,100592.94
2023-04-16T17:12:05.529Z,100589.84
2023-04-16T17:17:07.196Z,100592.00
2023-04-16T17:22:08.953Z,100601.09
2023-04-16T17:27:10.569Z,100609.22
2023-04-16T17:32:12.342Z,100610.69
2023-04-16T17:37:14.095Z,100613.53
2023-04-16T17:42:15.861Z,100619.47
2023-04-16T17:47:17.551Z,100625.19
2023-04-16T17:52:21.259Z,100628.72
2023-04-16T17:57:22.868Z,100635.78
2023-04-16T18:02:32.341Z,100638.19
2023-04-16T18:07:36.611Z,100639.75
2023-04-16T18:12:38.333Z,100643.44
2023-04-16T18:17:40.516Z,100651.25
2023-04-16T18:22:42.555Z,100655.94
2023-04-16T18:27:44.844Z,100659.50
2023-04-16T18:33:16.621Z,100665.72
2023-04-16T18:38:08.783Z,100675.81
2023-04-16T18:43:11.828Z,100674.66
2023-04-16T18:48:13.481Z,100679.63
2023-04-16T18:53:19.894Z,100681.03
2023-04-16T18:58:24.554Z,100687.09
2023-04-16T19:03:27.472Z,100690.34
2023-04-16T19:08:29.767Z,100689.63
2023-04-16T19:13:32.336Z,100702.25
2023-04-16T19:18:33.976Z,100698.94
2023-04-16T19:23:35.699Z,100699.22
2023-04-16T19:28:38.780Z,100703.91
2023-04-16T19:33:41.184Z,100697.50
2023-04-16T19:38:42.802Z,100702.19
2023-04-16T19:43:53.181Z,100708.56
2023-04-16T19:48:54.885Z,100703.72
2023-04-16T19:53:58.729Z,100712.06
2023-04-16T19:59:02.035Z,100710.22
2023-04-16T20:04:03.844Z,100715.88
2023-04-16T20:09:06.045Z,100715.19
2023-04-16T20:14:07.686Z,100719.84
2023-04-16T20:19:17.109Z,100718.13
2023-04-16T20:24:18.874Z,100707.63
2023-04-16T20:29:23.200Z,100718.53
2023-04-16T20:34:24.876Z,100711.59
2023-04-16T20:39:27.338Z,100714.16
2023-04-16T20:44:33.431Z,100722.50
2023-04-16T20:49:35.326Z,100727.88
2023-04-16T20:54:37.128Z,100719.06
2023-04-16T20:59:38.857Z,100724.72
2023-04-16T21:04:40.815Z,100726.69
2023-04-16T21:09:42.564Z,100733.34
2023-04-16T21:14:44.278Z,100727.81
2023-04-16T21:19:49.468Z,100732.50
2023-04-16T21:25:07.207Z,100729.78
2023-04-16T21:30:15.032Z,100742.28
2023-04-16T21:35:16.775Z,100731.63
2023-04-16T21:40:21.801Z,100734.47
2023-04-16T21:45:23.574Z,100742.41
2023-04-16T21:50:25.356Z,100736.16
2023-04-16T21:55:27.028Z,100740.84
2023-04-16T22:00:37.908Z,100735.44
2023-04-16T22:05:44.976Z,100740.22
2023-04-16T22:10:47.088Z,100738.63
2023-04-16T22:15:48.671Z,100740.75
2023-04-16T22:20:51.034Z,100740.88
2023-04-16T22:25:54.319Z,100732.22
2023-04-16T22:30:57.586Z,100735.75
2023-04-16T22:36:03.275Z,100739.16
2023-04-16T22:41:05.003Z,100743.69
2023-04-16T22:46:14.785Z,100741.72
2023-04-16T22:51:21.402Z,100741.00
2023-04-16T22:56:28.668Z,100737.59
2023-04-16T23:01:34.361Z,100734.44
2023-04-16T23:06:36.245Z,100737.41
2023-04-16T23:11:37.954Z,100736.81
2023-04-16T23:16:39.930Z,100740.75
2023-04-16T23:21:41.894Z,100741.72
2023-04-16T23:26:43.526Z,100731.81
2023-04-16T23:31:45.404Z,100738.91
2023-04-16T23:36:47.128Z,100741.72
2023-04-16T23:41:48.831Z,100746.38
2023-04-16T23:46:50.621Z,100738.44
2023-04-16T23:51:52.275Z,100736.75
2023-04-16T23:56:53.917Z,100736.75
